Time;durP1;ratioP1;P1;durP2;ratioP2;P2;SDS_P1;SDS_P2;PMS_P1;PMS_P2;Temp;Humidity;BMP_temperature;BMP_pressure;BME280_temperature;BME280_humidity;BME280_pressure;Samples;Min_cycle;Max_cycle;Signal;HPM_P1;HPM_P2
2022/06/20 00:01:04;;;;;;;13.27;3.47;;;;;;;13.59;85.01;101297.69;5036600;28;20457;-71
2022/06/20 00:03:35;;;;;;;11.77;3.40;;;;;;;13.56;84.81;101300.91;5045958;28;20025;-71
2022/06/20 00:06:00;;;;;;;13.10;4.30;;;;;;;13.55;83.63;101291.78;5037822;28;20051;-71
2022/06/20 00:08:26;;;;;;;12.90;3.88;;;;;;;13.59;84.09;101289.41;5045382;28;20029;-71
2022/06/20 00:10:51;;;;;;;9.68;2.90;;;;;;;13.57;84.70;101291.53;5045249;28;20115;-66
2022/06/20 00:13:25;;;;;;;12.07;3.40;;;;;;;13.57;83.70;101302.56;5046624;28;20060;-71
2022/06/20 00:15:52;;;;;;;13.43;2.90;;;;;;;13.51;82.74;101290.59;5045708;28;20061;-71
2022/06/20 00:18:18;;;;;;;13.10;3.45;;;;;;;13.50;83.66;101286.97;5043709;28;20037;-71
2022/06/20 00:20:44;;;;;;;12.70;3.70;;;;;;;13.48;83.98;101285.53;5046051;28;20079;-71
2022/06/20 00:23:09;;;;;;;11.88;3.80;;;;;;;13.48;85.22;101293.81;5046317;28;20112;-71
2022/06/20 00:25:36;;;;;;;12.48;3.33;;;;;;;13.43;84.17;101279.88;5045978;28;20029;-71
2022/06/20 00:28:03;;;;;;;14.48;3.15;;;;;;;13.41;83.71;101287.56;5043916;28;20036;-71
2022/06/20 00:30:28;;;;;;;10.40;3.47;;;;;;;13.45;84.76;101321.91;5047539;28;20231;-72
2022/06/20 00:32:54;;;;;;;9.90;3.50;;;;;;;13.36;84.35;101335.19;5046058;28;20477;-72
2022/06/20 00:35:19;;;;;;;10.35;3.13;;;;;;;13.33;84.84;101349.47;5039788;28;20416;-71
2022/06/20 00:37:45;;;;;;;12.45;3.67;;;;;;;13.29;84.79;101350.19;5046788;28;20409;-71
2022/06/20 00:40:19;;;;;;;13.10;3.03;;;;;;;13.31;85.09;101359.06;5045697;28;20029;-71
2022/06/20 00:42:45;;;;;;;12.73;3.20;;;;;;;13.25;84.28;101371.88;5044706;28;20477;-71
2022/06/20 00:45:12;;;;;;;12.35;3.15;;;;;;;13.24;85.56;101397.78;5047014;28;20028;-71
2022/06/20 00:47:39;;;;;;;11.05;3.33;;;;;;;13.32;85.57;101422.25;5046301;28;20049;-71
2022/06/20 00:50:14;;;;;;;11.35;3.17;;;;;;;13.35;85.80;101437.53;5044598;28;20036;-71
2022/06/20 00:52:58;;;;;;;13.80;3.42;;;;;;;13.40;84.96;101445.94;5043534;28;20029;-71
2022/06/20 00:55:55;;;;;;;12.15;3.95;;;;;;;13.43;84.75;101464.75;5046648;28;20489;-71
2022/06/20 00:58:28;;;;;;;9.85;3.95;;;;;;;13.40;85.54;101507.47;5042334;28;20381;-72
2022/06/20 01:00:55;;;;;;;11.63;3.08;;;;;;;13.39;84.85;101525.09;5046502;28;20112;-70
2022/06/20 01:03:23;;;;;;;14.38;3.00;;;;;;;13.40;82.94;101528.72;5042017;28;20033;-72
2022/06/20 01:05:57;;;;;;;12.98;3.17;;;;;;;13.42;82.76;101521.88;5045434;28;20039;-71
2022/06/20 01:08:42;;;;;;;11.45;3.25;;;;;;;13.45;84.18;101501.25;5044165;28;20679;-71
2022/06/20 01:11:22;;;;;;;11.10;2.80;;;;;;;13.49;83.90;101489.53;5061556;28;20053;-70
2022/06/20 01:13:50;;;;;;;11.95;3.13;;;;;;;13.53;83.30;101462.28;5046525;28;20055;-72
2022/06/20 01:16:27;;;;;;;9.63;2.87;;;;;;;13.57;82.78;101451.63;5046150;28;20026;-71
2022/06/20 01:18:54;;;;;;;12.25;3.10;;;;;;;13.56;81.67;101438.91;5045895;28;20017;-72
2022/06/20 01:21:27;;;;;;;12.07;3.10;;;;;;;13.60;85.37;101448.41;5046674;28;20108;-72
2022/06/20 01:24:08;;;;;;;13.73;2.72;;;;;;;13.61;85.70;101444.56;5045418;28;20021;-72
2022/06/20 01:26:51;;;;;;;11.02;2.88;;;;;;;13.53;86.21;101445.72;5045398;28;20103;-71
2022/06/20 01:29:17;;;;;;;13.30;3.15;;;;;;;13.43;86.28;101426.13;5044104;28;20032;-72
2022/06/20 01:31:56;;;;;;;12.18;3.50;;;;;;;13.30;86.45;101423.59;5045198;28;20024;-71
2022/06/20 01:34:22;;;;;;;10.98;2.95;;;;;;;13.22;86.70;101410.94;5046607;28;20055;-71
2022/06/20 01:39:38;;;;;;;12.32;3.15;;;;;;;13.12;88.29;101411.47;5025084;28;20118;-71
2022/06/20 01:42:21;;;;;;;11.07;3.47;;;;;;;13.10;88.84;101416.41;5040042;28;20032;-71
2022/06/20 01:45:01;;;;;;;13.27;4.45;;;;;;;13.10;87.65;101410.88;5044348;28;20101;-71
2022/06/20 01:47:27;;;;;;;13.90;3.20;;;;;;;13.03;89.27;101399.13;5043075;28;20086;-71
2022/06/20 01:50:06;;;;;;;12.82;3.70;;;;;;;12.96;89.21;101385.41;5044117;28;20071;-71
2022/06/20 01:52:38;;;;;;;12.65;3.30;;;;;;;12.92;89.68;101378.66;5044981;28;20025;-71
2022/06/20 01:55:17;;;;;;;12.05;3.38;;;;;;;12.89;90.18;101373.63;5044631;28;20033;-71
2022/06/20 01:57:45;;;;;;;13.23;3.90;;;;;;;12.78;89.75;101366.16;5044438;28;20355;-71
2022/06/20 02:00:23;;;;;;;12.00;3.55;;;;;;;12.78;90.90;101366.16;5034031;28;20569;-71
2022/06/20 02:02:52;;;;;;;11.93;3.28;;;;;;;12.76;90.38;101360.03;5026157;28;20025;-71
2022/06/20 02:05:21;;;;;;;15.15;3.88;;;;;;;12.76;90.96;101359.19;5033008;28;20020;-71
2022/06/20 02:07:46;;;;;;;10.50;3.03;;;;;;;12.75;90.48;101372.13;5032481;28;20028;-71
2022/06/20 02:10:17;;;;;;;11.80;3.60;;;;;;;12.71;90.46;101365.41;5040967;28;20049;-71
2022/06/20 02:12:45;;;;;;;15.30;4.07;;;;;;;12.68;90.54;101365.88;5044295;28;20029;-71
2022/06/20 02:15:16;;;;;;;12.55;3.38;;;;;;;12.63;90.63;101363.81;5042096;28;20033;-70
2022/06/20 02:17:44;;;;;;;16.17;4.93;;;;;;;12.64;90.10;101348.13;5045137;28;20334;-71
2022/06/20 02:20:15;;;;;;;12.63;3.53;;;;;;;12.65;90.94;101344.28;5044698;28;20082;-71
2022/06/20 02:22:41;;;;;;;13.15;3.47;;;;;;;12.67;89.50;101336.59;5044102;28;20021;-71
2022/06/20 02:25:11;;;;;;;10.60;3.22;;;;;;;12.70;89.33;101327.88;5045007;28;20033;-71
2022/06/20 02:27:39;;;;;;;15.35;4.07;;;;;;;12.72;89.39;101328.47;5043463;28;21750;-71
2022/06/20 02:30:05;;;;;;;;;;;;;;;12.85;88.16;101320.03;5031420;28;20036;-71
2022/06/20 02:32:37;;;;;;;14.70;3.80;;;;;;;12.75;89.17;101317.00;5043575;28;19913;-71
2022/06/20 02:35:05;;;;;;;13.05;3.63;;;;;;;12.72;88.66;101307.31;5044734;28;20021;-71
2022/06/20 02:37:31;;;;;;;12.57;3.92;;;;;;;12.76;88.91;101306.81;5043591;28;20033;-71
2022/06/20 02:40:03;;;;;;;10.82;3.85;;;;;;;12.74;88.01;101312.56;5044171;28;20017;-71
2022/06/20 02:42:34;;;;;;;13.25;3.78;;;;;;;12.72;88.52;101317.47;5042783;28;20082;-72
2022/06/20 02:45:01;;;;;;;11.57;4.07;;;;;;;12.73;88.04;101328.28;5043892;28;20030;-71
2022/06/20 02:47:28;;;;;;;10.23;3.30;;;;;;;12.70;87.81;101314.09;5043460;28;20017;-71
2022/06/20 02:49:56;;;;;;;11.18;3.30;;;;;;;12.73;88.13;101302.63;5043991;28;20544;-72
2022/06/20 02:52:29;;;;;;;13.60;3.17;;;;;;;12.72;86.91;101303.69;5044373;28;20397;-71
2022/06/20 02:54:55;;;;;;;12.50;3.47;;;;;;;12.69;86.76;101291.22;5043043;28;20119;-71
2022/06/20 02:57:38;;;;;;;11.57;3.30;;;;;;;12.72;86.41;101289.91;5032131;28;20040;-71
2022/06/20 03:00:11;;;;;;;10.75;3.05;;;;;;;12.68;87.19;101289.56;5024181;28;20434;-72
2022/06/20 03:02:38;;;;;;;10.90;3.22;;;;;;;12.66;86.68;101266.03;5028296;28;20524;-72
2022/06/20 03:05:05;;;;;;;11.95;3.35;;;;;;;12.68;87.17;101266.66;5033188;28;20052;-72
2022/06/20 03:07:36;;;;;;;10.75;3.45;;;;;;;12.71;86.71;101261.50;5044525;28;20033;-71
2022/06/20 03:10:14;;;;;;;8.95;3.22;;;;;;;12.66;86.51;101253.09;5044569;28;20053;-71
2022/06/20 03:12:40;;;;;;;10.50;3.35;;;;;;;12.70;86.92;101248.81;5044211;28;20397;-71
2022/06/20 03:15:06;;;;;;;11.68;3.70;;;;;;;12.71;87.25;101242.22;5043459;28;20029;-72
2022/06/20 03:17:32;;;;;;;11.95;3.63;;;;;;;12.70;86.60;101246.03;5043578;28;20090;-71
2022/06/20 03:20:03;;;;;;;12.25;3.70;;;;;;;12.71;86.90;101250.47;5044811;28;20528;-71
2022/06/20 03:22:34;;;;;;;12.13;3.42;;;;;;;12.74;86.41;101235.41;5039063;28;20167;-71
2022/06/20 03:25:01;;;;;;;7.97;2.78;;;;;;;12.76;86.61;101248.94;5028401;28;20025;-72
2022/06/20 03:27:30;;;;;;;12.18;3.33;;;;;;;12.78;85.76;101261.41;5025256;28;20029;-71
2022/06/20 03:30:02;;;;;;;13.13;3.47;;;;;;;12.74;86.09;101271.22;5024860;28;20064;-71
2022/06/20 03:32:27;;;;;;;10.85;3.40;;;;;;;12.73;86.53;101280.56;5024293;28;20546;-71
2022/06/20 03:34:53;;;;;;;9.80;3.30;;;;;;;12.73;86.68;101302.63;5028701;28;20033;-71
2022/06/20 03:37:20;;;;;;;10.15;3.40;;;;;;;12.75;86.94;101305.16;5044073;28;20061;-71
2022/06/20 03:39:47;;;;;;;8.73;3.60;;;;;;;12.76;87.06;101304.91;5043139;28;20025;-71
2022/06/20 03:42:14;;;;;;;12.00;3.60;;;;;;;12.79;87.61;101298.94;5042641;28;20039;-72
2022/06/20 03:45:02;;;;;;;13.63;4.20;;;;;;;12.85;87.14;101300.75;5043075;28;20045;-71
2022/06/20 03:47:30;;;;;;;;;;;;;;;12.96;85.95;101307.38;5036546;28;20037;-71
2022/06/20 03:50:17;;;;;;;10.48;3.45;;;;;;;12.89;86.79;101306.63;5047521;28;19920;-71
2022/06/20 03:52:54;;;;;;;11.10;3.90;;;;;;;12.87;86.85;101322.56;5047183;28;20121;-71
2022/06/20 03:55:30;;;;;;;11.85;3.67;;;;;;;12.90;87.82;101339.47;5048729;28;20412;-71
2022/06/20 03:58:07;;;;;;;13.32;4.30;;;;;;;12.93;87.51;101347.28;5046050;28;20029;-71
2022/06/20 04:00:47;;;;;;;15.35;4.10;;;;;;;12.95;87.31;101350.63;5048266;28;20510;-71
2022/06/20 04:03:24;;;;;;;9.77;3.67;;;;;;;12.96;88.05;101348.72;5047129;28;20036;-71
2022/06/20 04:06:07;;;;;;;14.10;3.92;;;;;;;13.01;87.83;101350.78;5048153;28;20033;-71
2022/06/20 04:11:33;;;;;;;10.15;4.03;;;;;;;13.10;88.46;101346.63;5046646;28;20068;-71
2022/06/20 04:14:19;;;;;;;8.88;3.58;;;;;;;13.16;88.67;101356.69;5030033;28;20057;-71
2022/06/20 04:16:48;;;;;;;13.07;4.28;;;;;;;13.12;88.94;101361.84;5044720;28;20389;-71
2022/06/20 04:19:29;;;;;;;11.48;4.07;;;;;;;13.15;88.14;101363.31;5037624;28;20604;-73
2022/06/20 04:22:12;;;;;;;12.55;4.28;;;;;;;13.19;88.63;101370.88;5042444;28;20025;-72
2022/06/20 04:24:45;;;;;;;13.18;4.10;;;;;;;13.18;87.54;101374.72;5040604;28;20501;-72
2022/06/20 04:27:23;;;;;;;9.23;4.05;;;;;;;13.24;88.86;101372.97;5040206;28;20082;-72
2022/06/20 04:29:58;;;;;;;12.88;4.20;;;;;;;13.26;88.19;101376.31;5044648;28;20441;-72
2022/06/20 04:32:39;;;;;;;12.50;4.00;;;;;;;13.31;88.17;101378.38;5042363;28;20043;-72
2022/06/20 04:35:17;;;;;;;11.35;3.70;;;;;;;13.35;88.57;101388.69;5033888;28;20137;-72
2022/06/20 04:37:50;;;;;;;12.32;3.85;;;;;;;13.33;88.08;101390.88;5036388;28;20455;-72
2022/06/20 04:40:27;;;;;;;11.27;3.78;;;;;;;13.40;88.07;101388.81;5046158;28;20021;-71
2022/06/20 04:43:01;;;;;;;13.10;4.78;;;;;;;13.44;88.71;101381.75;5026346;28;20489;-73
2022/06/20 04:45:54;;;;;;;12.63;3.90;;;;;;;13.52;88.33;101391.59;5030328;28;20035;-72
2022/06/20 04:48:22;;;;;;;9.35;3.30;;;;;;;13.53;87.82;101400.72;5039118;28;20033;-72
2022/06/20 04:50:54;;;;;;;11.77;4.10;;;;;;;13.51;87.27;101398.22;5026591;28;20028;-71
2022/06/20 04:53:25;;;;;;;13.73;4.30;;;;;;;13.54;87.31;101399.66;5025742;28;20103;-71
2022/06/20 04:55:56;;;;;;;9.65;3.50;;;;;;;13.59;87.25;101405.31;5026661;28;20092;-71
2022/06/20 04:58:27;;;;;;;10.07;3.83;;;;;;;13.61;86.56;101406.75;5026722;28;20532;-73
2022/06/20 05:00:53;;;;;;;11.02;3.47;;;;;;;13.66;86.32;101404.13;5025843;28;20474;-73
2022/06/20 05:03:27;;;;;;;12.15;4.28;;;;;;;13.71;86.83;101406.16;5026208;28;20887;-72
2022/06/20 05:05:55;;;;;;;11.70;4.10;;;;;;;13.76;87.32;101411.81;5026776;28;20036;-71
2022/06/20 05:08:31;;;;;;;13.93;3.90;;;;;;;13.87;88.07;101418.44;5026955;28;20477;-72
2022/06/20 05:11:06;;;;;;;11.25;3.90;;;;;;;13.87;86.85;101410.97;5035560;28;20045;-73
2022/06/20 05:13:41;;;;;;;11.57;3.97;;;;;;;13.89;86.50;101411.59;5046119;28;20037;-72
2022/06/20 05:16:16;;;;;;;14.85;4.35;;;;;;;13.89;86.55;101407.97;5045230;28;20397;-72
2022/06/20 05:18:45;;;;;;;11.38;3.83;;;;;;;13.92;88.21;101413.84;5045320;28;20067;-72
2022/06/20 05:21:17;;;;;;;13.90;3.97;;;;;;;13.95;88.02;101410.63;5045905;28;20029;-73
2022/06/20 05:23:47;;;;;;;13.43;4.35;;;;;;;14.00;88.02;101408.00;5044966;28;20029;-73
2022/06/20 05:26:19;;;;;;;12.15;5.30;;;;;;;13.99;87.20;101411.00;5040224;28;20410;-72
2022/06/20 05:28:47;;;;;;;11.20;4.40;;;;;;;13.96;86.10;101417.84;5045150;28;20040;-72
2022/06/20 05:31:17;;;;;;;10.75;4.35;;;;;;;13.95;85.84;101431.88;5045508;28;20021;-72
2022/06/20 05:33:52;;;;;;;12.15;3.92;;;;;;;13.97;86.67;101436.06;5043795;28;20031;-72
2022/06/20 05:36:29;;;;;;;10.77;3.58;;;;;;;13.96;86.17;101426.13;5045780;28;20029;-73
2022/06/20 05:39:00;;;;;;;11.90;3.65;;;;;;;14.06;86.23;101424.69;5042996;28;20504;-72
2022/06/20 05:41:26;;;;;;;13.07;4.07;;;;;;;14.12;86.41;101423.72;5044845;28;20033;-72
2022/06/20 05:43:52;;;;;;;11.88;3.55;;;;;;;14.12;85.08;101418.19;5045083;28;20710;-71
2022/06/20 05:46:39;;;;;;;11.82;3.80;;;;;;;14.20;85.34;101415.09;5042414;28;20118;-72
2022/06/20 05:49:11;;;;;;;8.40;3.40;;;;;;;14.19;83.70;101413.38;5039060;28;20033;-72
2022/06/20 05:51:40;;;;;;;12.23;3.55;;;;;;;14.26;84.12;101414.94;5027905;28;20063;-72
2022/06/20 05:54:13;;;;;;;12.50;4.15;;;;;;;14.29;84.46;101410.84;5040105;28;20030;-73
2022/06/20 05:56:44;;;;;;;12.50;3.63;;;;;;;14.38;85.18;101422.38;5025252;28;20270;-72
2022/06/20 05:59:27;;;;;;;13.20;3.80;;;;;;;14.48;85.74;101415.19;5038486;28;20029;-73
2022/06/20 06:02:00;;;;;;;12.70;4.22;;;;;;;14.57;84.23;101417.59;5041265;28;20066;-73
2022/06/20 06:04:36;;;;;;;12.23;3.55;;;;;;;14.68;83.93;101425.00;5032017;28;20032;-73
2022/06/20 06:07:19;;;;;;;10.57;3.50;;;;;;;14.81;84.17;101441.34;5043163;28;20032;-72
2022/06/20 06:09:48;;;;;;;9.45;3.63;;;;;;;14.81;83.35;101438.56;5044746;28;20470;-72
2022/06/20 06:12:45;;;;;;;8.10;3.30;;;;;;;14.88;83.75;101436.50;5042532;28;20039;-72
2022/06/20 06:15:30;;;;;;;12.10;3.97;;;;;;;14.87;81.24;101436.75;5032898;28;20448;-73
2022/06/20 06:18:00;;;;;;;12.30;3.70;;;;;;;14.75;81.53;101437.63;5036580;28;20397;-73
2022/06/20 06:20:27;;;;;;;13.02;4.32;;;;;;;14.75;81.20;101437.63;5044856;28;20104;-73
2022/06/20 06:22:57;;;;;;;13.80;4.07;;;;;;;14.72;81.96;101442.81;5043898;28;20115;-73
2022/06/20 06:25:24;;;;;;;14.30;4.00;;;;;;;14.71;82.69;101441.13;5044729;28;20271;-72
2022/06/20 06:27:54;;;;;;;12.65;3.88;;;;;;;14.76;80.34;101444.00;5044843;28;20112;-73
2022/06/20 06:30:29;;;;;;;13.77;4.00;;;;;;;14.81;79.92;101441.34;5044643;28;20047;-73
2022/06/20 06:33:05;;;;;;;12.57;4.07;;;;;;;14.89;80.55;101443.69;5044126;28;20017;-73
2022/06/20 06:35:35;;;;;;;11.40;3.60;;;;;;;14.95;80.22;101439.13;5044416;28;20074;-73
2022/06/20 06:38:09;;;;;;;13.02;3.55;;;;;;;15.02;79.74;101432.38;5042799;28;20405;-73
2022/06/20 06:40:52;;;;;;;10.60;3.55;;;;;;;15.14;79.41;101445.31;5043348;28;20043;-73
2022/06/20 06:43:32;;;;;;;9.43;3.17;;;;;;;15.17;77.84;101437.38;5044926;28;20021;-73
2022/06/20 06:46:00;;;;;;;8.80;3.38;;;;;;;15.15;75.96;101435.91;5044230;28;20029;-73
2022/06/20 06:48:50;;;;;;;10.23;3.70;;;;;;;15.23;77.47;101443.84;5044045;28;20025;-73
2022/06/20 06:51:24;;;;;;;9.68;4.03;;;;;;;15.33;76.57;101457.88;5038629;28;20050;-72
2022/06/20 06:54:11;;;;;;;11.25;3.85;;;;;;;15.55;76.90;101461.59;5043137;28;20108;-71
2022/06/20 06:56:55;;;;;;;8.70;3.40;;;;;;;15.66;76.10;101465.44;5043942;28;20382;-71
2022/06/20 06:59:28;;;;;;;13.77;3.75;;;;;;;15.73;74.35;101465.28;5044876;28;20372;-72
2022/06/20 07:01:57;;;;;;;8.85;3.75;;;;;;;15.74;74.79;101459.47;5043534;28;20052;-72
2022/06/20 07:04:31;;;;;;;12.70;3.95;;;;;;;15.85;75.14;101462.44;5043784;28;20033;-71
2022/06/20 07:07:02;;;;;;;10.43;3.60;;;;;;;15.89;73.19;101458.91;5043400;28;20029;-71
2022/06/20 07:09:32;;;;;;;10.52;3.10;;;;;;;16.05;75.06;101466.38;5044053;28;20522;-71
2022/06/20 07:12:22;;;;;;;11.13;4.05;;;;;;;16.25;74.29;101463.09;5042762;28;20438;-72
2022/06/20 07:15:05;;;;;;;10.93;3.78;;;;;;;16.31;73.08;101475.09;5039952;28;20375;-72
2022/06/20 07:17:55;;;;;;;11.60;3.33;;;;;;;16.32;72.53;101474.88;5039041;28;20033;-71
2022/06/20 07:20:26;;;;;;;7.72;3.03;;;;;;;16.36;71.46;101483.50;5021357;28;20051;-72
2022/06/20 07:22:52;;;;;;;12.23;3.67;;;;;;;16.43;72.41;101486.94;5023967;28;20107;-72
2022/06/20 07:25:23;;;;;;;12.23;4.18;;;;;;;16.52;70.41;101490.94;5027204;28;21605;-72
2022/06/20 07:27:54;;;;;;;10.48;4.07;;;;;;;16.59;70.80;101485.22;5045232;28;20444;-73
2022/06/20 07:30:24;;;;;;;10.77;4.57;;;;;;;16.79;69.85;101484.72;5046796;28;20117;-73
2022/06/20 07:33:06;;;;;;;11.07;3.20;;;;;;;17.06;68.98;101491.16;5038614;28;20068;-72
2022/06/20 07:35:46;;;;;;;8.35;3.17;;;;;;;17.12;67.13;101480.97;5043629;28;20107;-72
2022/06/20 07:38:30;;;;;;;10.88;4.22;;;;;;;17.08;67.75;101489.00;5037782;28;20045;-72
2022/06/20 07:41:00;;;;;;;10.80;3.38;;;;;;;16.55;66.34;101484.91;5046037;28;20025;-71
2022/06/20 07:43:53;;;;;;;10.50;3.55;;;;;;;16.19;68.51;101477.97;5046462;28;20388;-71
2022/06/20 07:46:39;;;;;;;10.73;3.60;;;;;;;15.91;68.33;101483.59;5032606;28;20033;-72
2022/06/20 07:49:12;;;;;;;10.20;3.75;;;;;;;15.74;69.36;101486.34;5039302;28;20444;-72
2022/06/20 07:51:42;;;;;;;9.15;3.90;;;;;;;15.86;71.60;101492.63;5040481;28;20513;-72
2022/06/20 07:54:13;;;;;;;9.90;3.63;;;;;;;16.14;72.25;101493.69;5041588;28;20075;-72
2022/06/20 07:56:46;;;;;;;10.63;3.35;;;;;;;16.43;71.03;101495.25;5046493;28;20040;-72
2022/06/20 07:59:14;;;;;;;10.50;3.45;;;;;;;16.56;66.73;101491.28;5040963;28;20438;-72
2022/06/20 08:01:57;;;;;;;9.90;3.15;;;;;;;16.35;64.61;101495.69;5044629;28;20036;-72
2022/06/20 08:04:30;;;;;;;10.07;3.17;;;;;;;16.12;65.62;101493.94;5031983;28;20083;-72
2022/06/20 08:07:21;;;;;;;10.80;3.67;;;;;;;15.89;66.58;101499.63;5031354;28;20540;-72
2022/06/20 08:09:56;;;;;;;7.88;3.58;;;;;;;15.76;67.72;101504.41;5029703;28;20056;-72
2022/06/20 08:12:38;;;;;;;9.35;3.40;;;;;;;15.82;69.13;101502.56;5047468;28;20033;-72
2022/06/20 08:15:09;;;;;;;11.23;3.78;;;;;;;15.90;68.15;101510.44;5046612;28;20037;-71
2022/06/20 08:17:34;;;;;;;10.25;3.20;;;;;;;15.84;65.56;101505.91;5044411;28;20025;-71
2022/06/20 08:20:00;;;;;;;12.05;3.75;;;;;;;15.87;67.31;101499.06;5047636;28;20033;-72
2022/06/20 08:22:32;;;;;;;7.13;3.38;;;;;;;15.88;67.48;101509.03;5045507;28;20028;-71
2022/06/20 08:25:05;;;;;;;10.05;3.28;;;;;;;16.08;66.79;101501.06;5047553;28;20028;-72
2022/06/20 08:27:42;;;;;;;11.65;2.97;;;;;;;16.25;66.67;101503.84;5047314;28;20048;-71
2022/06/20 08:30:13;;;;;;;11.02;3.20;;;;;;;16.27;64.77;101508.06;5044936;28;20044;-71
2022/06/20 08:33:10;;;;;;;10.73;3.42;;;;;;;16.55;65.44;101509.84;5041281;28;20032;-71
2022/06/20 08:35:44;;;;;;;10.27;3.75;;;;;;;16.92;63.64;101506.50;5018597;28;20047;-71
2022/06/20 08:38:19;;;;;;;9.88;3.50;;;;;;;17.06;63.64;101506.97;5044700;28;20029;-71
2022/06/20 08:41:22;;;;;;;10.18;3.50;;;;;;;17.44;64.13;101500.50;5045041;28;20029;-72
2022/06/20 08:44:22;;;;;;;8.43;3.10;;;;;;;17.67;61.19;101510.47;5046874;28;20044;-72
2022/06/20 08:47:25;;;;;;;7.63;3.00;;;;;;;18.08;62.76;101520.06;5038484;28;20021;-71
2022/06/20 08:50:20;;;;;;;8.48;3.08;;;;;;;18.07;61.16;101518.38;5043156;28;20119;-73
2022/06/20 08:53:20;;;;;;;9.15;3.90;;;;;;;18.20;60.33;101516.25;5037712;28;20040;-74
2022/06/20 08:56:15;;;;;;;8.30;2.97;;;;;;;18.52;58.42;101519.88;5036151;28;20037;-73
2022/06/20 08:58:59;;;;;;;10.35;3.10;;;;;;;18.79;56.69;101527.28;5045340;28;20045;-73
2022/06/20 09:01:45;;;;;;;9.52;3.17;;;;;;;18.74;56.70;101528.09;5044605;28;20033;-73
2022/06/20 09:04:24;;;;;;;8.60;3.08;;;;;;;18.74;55.32;101530.03;5046124;28;20393;-73
2022/06/20 09:07:04;;;;;;;9.05;3.15;;;;;;;18.52;56.86;101536.56;5044857;28;20588;-74
2022/06/20 09:09:55;;;;;;;7.57;2.40;;;;;;;18.40;55.88;101544.25;5033210;28;20412;-74
2022/06/20 09:12:47;;;;;;;6.45;2.22;;;;;;;18.23;54.47;101544.38;5027054;28;20112;-72
2022/06/20 09:15:38;;;;;;;7.35;2.70;;;;;;;18.41;56.70;101545.94;5025411;28;20045;-73
2022/06/20 09:18:19;;;;;;;7.47;3.15;;;;;;;18.42;53.03;101536.47;5028923;28;20180;-73
2022/06/20 09:20:52;;;;;;;7.57;2.78;;;;;;;18.31;53.27;101552.25;5026121;28;20084;-73
2022/06/20 09:23:27;;;;;;;8.40;3.08;;;;;;;18.51;53.64;101543.22;5025778;28;20052;-73
2022/06/20 09:26:03;;;;;;;10.45;2.97;;;;;;;18.80;55.19;101552.06;5034032;28;20025;-73
2022/06/20 09:28:38;;;;;;;8.70;3.22;;;;;;;19.10;51.37;101551.41;5045428;28;20029;-73
2022/06/20 09:31:09;;;;;;;10.35;3.38;;;;;;;19.59;52.13;101547.44;5044676;28;20062;-72
2022/06/20 09:33:53;;;;;;;7.95;3.10;;;;;;;20.18;51.85;101544.22;5045312;28;20039;-73
2022/06/20 09:36:48;;;;;;;11.93;3.60;;;;;;;20.94;52.16;101541.38;5044158;28;20029;-73
2022/06/20 09:39:16;;;;;;;9.55;3.78;;;;;;;21.42;46.71;101543.75;5043355;28;20393;-73
2022/06/20 09:41:50;;;;;;;20.83;4.63;;;;;;;20.84;48.97;101552.59;5026326;28;20304;-74
2022/06/20 09:44:24;;;;;;;10.90;3.47;;;;;;;21.36;49.95;101554.13;5044497;28;20039;-73
2022/06/20 09:47:19;;;;;;;11.43;3.30;;;;;;;23.41;46.01;101554.09;5044628;28;20028;-73
2022/06/20 09:50:32;;;;;;;10.90;3.13;;;;;;;25.69;42.82;101552.41;5037336;28;20045;-72
2022/06/20 09:53:19;;;;;;;9.65;3.40;;;;;;;27.45;37.73;101538.84;5028483;28;20049;-73
2022/06/20 09:56:07;;;;;;;8.20;2.70;;;;;;;28.37;33.29;101550.91;5040513;28;20477;-73
2022/06/20 09:58:36;;;;;;;;;;;;;;;28.95;35.85;101551.47;5045702;28;20029;-72
2022/06/20 10:01:13;;;;;;;8.00;2.65;;;;;;;29.50;32.64;101546.84;5041724;28;20384;-70
2022/06/20 10:03:52;;;;;;;10.50;3.00;;;;;;;30.54;30.01;101541.22;5042553;28;20032;-70
2022/06/20 10:06:28;;;;;;;8.55;2.80;;;;;;;29.82;30.25;101539.69;5035469;28;20025;-70
2022/06/20 10:09:11;;;;;;;8.68;2.70;;;;;;;30.13;32.13;101542.13;5038002;28;20044;-70
2022/06/20 10:12:00;;;;;;;9.30;2.80;;;;;;;30.61;30.23;101549.97;5043507;28;20046;-70
2022/06/20 10:14:31;;;;;;;7.70;2.85;;;;;;;31.09;27.16;101544.78;5039919;28;20055;-70
2022/06/20 10:17:11;;;;;;;8.00;2.50;;;;;;;31.16;28.82;101550.69;5039243;28;20040;-70
2022/06/20 10:19:59;;;;;;;11.98;2.83;;;;;;;29.71;27.65;101551.44;5040183;28;20053;-70
2022/06/20 10:22:40;;;;;;;9.57;2.75;;;;;;;30.20;28.03;101550.88;5036785;28;20036;-69
2022/06/20 10:25:33;;;;;;;8.52;3.03;;;;;;;30.78;30.34;101566.03;5029176;28;20490;-69
2022/06/20 10:28:10;;;;;;;8.93;3.00;;;;;;;31.32;25.88;101559.34;5043642;28;20036;-69
2022/06/20 10:30:49;;;;;;;9.98;2.85;;;;;;;29.52;29.07;101556.69;5034639;28;20413;-70
2022/06/20 10:33:33;;;;;;;8.88;2.90;;;;;;;27.23;32.96;101570.00;5043197;28;20477;-69
2022/06/20 10:36:18;;;;;;;7.43;2.88;;;;;;;25.57;35.34;101572.66;5041348;28;20126;-70
2022/06/20 10:39:21;;;;;;;10.82;3.50;;;;;;;24.50;37.95;101571.91;5039915;28;20033;-70
2022/06/20 10:42:23;;;;;;;8.75;3.40;;;;;;;23.31;38.54;101579.44;5031076;28;20039;-70
2022/06/20 10:45:22;;;;;;;8.25;3.22;;;;;;;22.78;39.34;101583.09;5041189;28;20040;-71
2022/06/20 10:48:27;;;;;;;8.20;3.47;;;;;;;22.53;40.94;101578.56;5034778;28;20362;-70
2022/06/20 10:51:16;;;;;;;11.77;3.50;;;;;;;22.47;39.87;101581.69;5037168;28;20037;-71
2022/06/20 10:53:59;;;;;;;12.05;3.67;;;;;;;22.92;42.17;101585.22;5041833;28;20116;-70
2022/06/20 10:56:58;;;;;;;8.93;3.70;;;;;;;23.46;42.23;101581.22;5024612;28;20037;-70
2022/06/20 10:59:48;;;;;;;8.80;3.67;;;;;;;23.01;41.78;101583.44;5037451;28;20128;-70
2022/06/20 11:02:25;;;;;;;7.78;3.65;;;;;;;22.28;41.81;101588.00;5035539;28;20072;-69
2022/06/20 11:05:28;;;;;;;8.68;3.47;;;;;;;22.36;41.81;101588.50;5038586;28;20029;-70
2022/06/20 11:08:11;;;;;;;9.40;3.17;;;;;;;22.58;42.21;101586.06;5041739;28;20053;-69
2022/06/20 11:11:01;;;;;;;7.90;3.08;;;;;;;23.12;43.59;101586.97;5034989;28;20076;-70
2022/06/20 11:13:48;;;;;;;10.60;3.42;;;;;;;23.13;40.94;101588.66;5039615;28;20044;-70
2022/06/20 11:16:32;;;;;;;9.52;3.53;;;;;;;22.54;42.43;101590.59;5041724;28;20036;-69
2022/06/20 11:19:13;;;;;;;12.02;4.03;;;;;;;22.35;42.59;101595.22;5044237;28;20028;-71
2022/06/20 11:22:03;;;;;;;7.78;3.28;;;;;;;22.69;42.94;101598.84;5046386;28;20415;-70
2022/06/20 11:24:47;;;;;;;9.68;3.58;;;;;;;22.89;44.27;101592.25;5043621;28;20033;-70
2022/06/20 11:27:32;;;;;;;12.23;3.50;;;;;;;23.01;40.86;101592.69;5047031;28;20392;-70
2022/06/20 11:30:07;;;;;;;9.10;3.30;;;;;;;22.57;41.01;101598.41;5028230;28;20448;-70
2022/06/20 11:32:54;;;;;;;11.32;3.70;;;;;;;21.90;42.72;101597.19;5027563;28;20030;-70
2022/06/20 11:35:37;;;;;;;10.65;3.50;;;;;;;21.83;44.75;101599.44;5028460;28;20608;-69
2022/06/20 11:38:18;;;;;;;8.93;3.28;;;;;;;22.28;42.03;101590.78;5026898;28;20124;-70
2022/06/20 11:41:05;;;;;;;9.57;2.85;;;;;;;23.02;41.89;101597.16;5028040;28;20109;-70
2022/06/20 11:44:08;;;;;;;9.23;3.22;;;;;;;22.96;41.32;101591.88;5038933;28;20033;-70
2022/06/20 11:46:58;;;;;;;11.13;3.08;;;;;;;22.59;42.18;101596.13;5036539;28;20029;-70
2022/06/20 11:49:56;;;;;;;8.02;3.10;;;;;;;22.23;45.05;101588.03;5027896;28;20033;-70
2022/06/20 11:52:26;;;;;;;;;;;;;;;22.64;44.27;101592.47;5028153;28;20394;-68
2022/06/20 11:55:04;;;;;;;5.90;2.60;;;;;;;22.49;43.24;101590.63;5045813;28;19916;-68
2022/06/20 11:57:45;;;;;;;8.00;2.65;;;;;;;23.06;41.31;101588.97;5047634;28;20465;-70
2022/06/20 12:00:21;;;;;;;7.72;2.80;;;;;;;23.34;38.72;101584.47;5039270;28;20883;-69
2022/06/20 12:03:03;;;;;;;9.40;3.25;;;;;;;23.50;39.87;101593.53;5047236;28;20060;-70
2022/06/20 12:05:52;;;;;;;12.88;3.60;;;;;;;22.90;39.07;101587.47;5045148;28;20036;-70
2022/06/20 12:08:44;;;;;;;9.75;3.00;;;;;;;22.30;40.73;101586.84;5044308;28;20033;-70
2022/06/20 12:11:15;;;;;;;9.30;2.95;;;;;;;22.96;43.00;101589.94;5017463;28;20045;-70